Time;durP1;ratioP1;P1;durP2;ratioP2;P2;SDS_P1;SDS_P2;PMS_P1;PMS_P2;Temp;Humidity;BMP_temperature;BMP_pressure;BME280_temperature;BME280_humidity;BME280_pressure;Samples;Min_cycle;Max_cycle;Signal;HPM_P1;HPM_P2
2022/03/30 00:00:50;;;;;;;40.30;12.77;;;10.30;69.00;;;;;;4997547;28;20061;-63
2022/03/30 00:03:17;;;;;;;23.02;10.90;;;10.30;69.00;;;;;;4995158;28;20069;-64
2022/03/30 00:05:44;;;;;;;25.90;11.32;;;10.30;68.80;;;;;;4989667;28;20070;-64
2022/03/30 00:08:13;;;;;;;28.42;10.63;;;10.30;68.90;;;;;;4976897;28;20121;-64
2022/03/30 00:10:41;;;;;;;28.10;10.85;;;10.30;68.80;;;;;;4977033;28;20109;-63
2022/03/30 00:13:08;;;;;;;33.50;12.63;;;10.30;69.30;;;;;;4977525;28;20046;-64
2022/03/30 00:15:36;;;;;;;27.67;11.63;;;10.30;69.40;;;;;;4976423;28;20622;-64
2022/03/30 00:18:03;;;;;;;42.95;12.98;;;10.30;69.70;;;;;;4976108;28;20552;-64
2022/03/30 00:20:29;;;;;;;43.30;11.73;;;10.30;69.90;;;;;;4976505;28;20113;-64
2022/03/30 00:22:56;;;;;;;;;;;10.30;70.60;;;;;;4977771;28;20046;-64
2022/03/30 00:25:23;;;;;;;29.38;11.35;;;10.20;70.40;;;;;;4976255;28;19926;-63
2022/03/30 00:27:50;;;;;;;;;;;10.20;70.00;;;;;;4975571;28;20113;-63
2022/03/30 00:30:19;;;;;;;21.77;9.63;;;10.20;70.40;;;;;;4976783;28;19972;-64
2022/03/30 00:32:46;;;;;;;23.98;9.27;;;10.20;70.40;;;;;;4975934;28;20706;-63
2022/03/30 00:35:14;;;;;;;33.75;11.43;;;10.20;70.90;;;;;;4976419;28;20108;-63
2022/03/30 00:37:41;;;;;;;36.13;12.30;;;10.20;71.30;;;;;;4975320;28;20046;-61
2022/03/30 00:40:11;;;;;;;35.67;11.52;;;10.10;71.50;;;;;;4975462;28;20400;-63
2022/03/30 00:42:38;;;;;;;28.00;11.55;;;10.00;71.50;;;;;;4975904;28;20045;-62
2022/03/30 00:45:10;;;;;;;40.88;12.57;;;10.00;71.60;;;;;;4976284;28;20145;-62
2022/03/30 00:47:37;;;;;;;29.92;10.77;;;10.00;71.80;;;;;;4975317;28;20044;-63
2022/03/30 00:50:13;;;;;;;18.95;8.52;;;9.90;71.50;;;;;;4976081;28;20112;-63
2022/03/30 00:52:40;;;;;;;26.15;9.25;;;9.90;71.50;;;;;;4976646;28;20082;-63
2022/03/30 00:55:07;;;;;;;29.38;9.65;;;9.90;72.00;;;;;;4975358;28;20456;-63
2022/03/30 00:57:35;;;;;;;30.95;9.85;;;9.90;72.20;;;;;;4974983;28;20054;-64
2022/03/30 01:00:05;;;;;;;34.22;13.05;;;9.90;72.90;;;;;;4976770;28;20058;-63
2022/03/30 01:02:32;;;;;;;34.72;11.85;;;9.90;73.60;;;;;;4975699;28;20050;-62
2022/03/30 01:05:00;;;;;;;34.63;12.00;;;9.90;74.00;;;;;;4976398;28;20054;-62
2022/03/30 01:07:27;;;;;;;34.70;12.23;;;9.90;74.30;;;;;;4973571;28;20130;-60
2022/03/30 01:09:53;;;;;;;32.85;13.02;;;9.80;74.20;;;;;;4976082;28;20891;-60
2022/03/30 01:12:20;;;;;;;;;;;9.80;74.90;;;;;;4976590;28;20120;-60
2022/03/30 01:14:47;;;;;;;37.83;12.32;;;9.80;74.70;;;;;;4974147;28;20020;-59
2022/03/30 01:17:14;;;;;;;;;;;9.80;74.80;;;;;;4975052;28;20162;-60
2022/03/30 01:19:41;;;;;;;36.95;11.63;;;9.80;74.70;;;;;;4975143;28;19980;-59
2022/03/30 01:22:08;;;;;;;43.35;11.38;;;9.80;74.50;;;;;;4974585;28;20671;-59
2022/03/30 01:24:36;;;;;;;46.35;11.45;;;9.80;74.30;;;;;;4975572;28;20070;-60
2022/03/30 01:27:03;;;;;;;54.60;10.82;;;9.80;74.10;;;;;;4974898;28;20128;-60
2022/03/30 01:32:25;;;;;;;33.83;12.45;;;9.70;73.40;;;;;;4975474;28;20046;-60
2022/03/30 01:34:53;;;;;;;46.90;9.95;;;9.80;74.00;;;;;;4975967;28;20043;-60
2022/03/30 01:37:20;;;;;;;42.47;10.75;;;9.80;74.00;;;;;;4974195;28;20101;-60
2022/03/30 01:39:46;;;;;;;;;;;9.80;74.10;;;;;;4975806;28;20535;-60
2022/03/30 01:42:13;;;;;;;55.08;10.70;;;9.80;73.50;;;;;;4975532;28;19957;-60
2022/03/30 01:44:40;;;;;;;46.15;10.63;;;9.80;73.40;;;;;;4975909;28;20053;-59
2022/03/30 01:47:09;;;;;;;;;;;9.80;72.80;;;;;;4979183;28;20148;-59
2022/03/30 01:49:37;;;;;;;57.88;12.77;;;9.90;72.30;;;;;;4978496;28;19929;-60
2022/03/30 01:52:04;;;;;;;55.28;12.40;;;9.90;73.00;;;;;;4979498;28;20039;-60
2022/03/30 01:54:35;;;;;;;50.50;11.23;;;9.90;71.70;;;;;;4979015;28;20655;-61
2022/03/30 01:57:03;;;;;;;54.22;13.48;;;9.90;72.80;;;;;;4979211;28;20053;-59
2022/03/30 01:59:30;;;;;;;48.30;11.25;;;10.00;72.40;;;;;;4978522;28;20053;-60
2022/03/30 02:01:57;;;;;;;44.40;10.88;;;9.90;71.40;;;;;;4979696;28;20693;-59
2022/03/30 02:04:24;;;;;;;46.28;10.85;;;10.00;72.30;;;;;;4979469;28;20092;-60
2022/03/30 02:06:51;;;;;;;53.30;10.05;;;10.00;72.50;;;;;;4976176;28;20046;-59
2022/03/30 02:09:18;;;;;;;41.55;10.27;;;10.00;72.20;;;;;;4979082;28;20477;-60
2022/03/30 02:11:45;;;;;;;;;;;10.00;72.30;;;;;;4979296;28;20042;-59
2022/03/30 02:14:12;;;;;;;42.30;10.37;;;10.00;73.20;;;;;;4979293;28;19926;-58
2022/03/30 02:16:39;;;;;;;43.75;10.52;;;10.00;73.30;;;;;;4969212;28;20073;-60
2022/03/30 02:19:06;;;;;;;29.58;9.63;;;9.90;73.30;;;;;;4977518;28;20042;-60
2022/03/30 02:21:34;;;;;;;51.85;12.32;;;9.90;73.40;;;;;;4978833;28;20358;-60
2022/03/30 02:24:01;;;;;;;48.97;9.32;;;9.90;73.90;;;;;;4979538;28;20738;-60
2022/03/30 02:26:30;;;;;;;42.60;12.32;;;9.90;73.90;;;;;;4979027;28;20039;-60
2022/03/30 02:28:56;;;;;;;51.50;12.27;;;9.80;74.10;;;;;;4977952;28;20070;-60
2022/03/30 02:31:24;;;;;;;32.85;10.90;;;9.80;74.70;;;;;;4978692;28;20822;-60
2022/03/30 02:33:50;;;;;;;46.15;11.50;;;9.80;74.80;;;;;;4978684;28;20278;-60
2022/03/30 02:36:17;;;;;;;;;;;9.70;74.80;;;;;;4979019;28;20042;-60
2022/03/30 02:38:44;;;;;;;64.47;11.38;;;9.70;75.00;;;;;;4977088;28;19932;-60
2022/03/30 02:41:12;;;;;;;52.85;10.77;;;9.70;75.50;;;;;;4978660;28;20042;-62
2022/03/30 02:43:40;;;;;;;67.40;12.07;;;9.60;77.10;;;;;;4977023;28;20884;-59
2022/03/30 02:46:06;;;;;;;47.05;11.80;;;9.60;76.60;;;;;;4977525;28;20652;-60
2022/03/30 02:48:35;;;;;;;;;;;9.60;76.70;;;;;;4978471;28;20046;-59
2022/03/30 02:51:03;;;;;;;;;;;9.50;76.60;;;;;;4978967;28;20845;-60
2022/03/30 02:53:30;;;;;;;;;;;9.50;77.00;;;;;;4979349;28;20041;-59
2022/03/30 02:55:58;;;;;;;38.92;10.52;;;9.50;77.40;;;;;;4977993;28;19929;-60
2022/03/30 02:58:25;;;;;;;49.65;11.23;;;9.50;77.20;;;;;;4972995;28;20074;-60
2022/03/30 03:00:54;;;;;;;65.10;10.80;;;9.50;77.70;;;;;;4983792;28;20057;-60
2022/03/30 03:03:22;;;;;;;35.78;9.45;;;9.40;77.80;;;;;;4978017;28;20041;-60
2022/03/30 03:05:48;;;;;;;37.63;10.68;;;9.40;77.50;;;;;;4978172;28;20053;-59
2022/03/30 03:08:16;;;;;;;48.88;11.40;;;9.40;77.80;;;;;;4975792;28;20050;-59
2022/03/30 03:10:45;;;;;;;45.45;10.63;;;9.40;77.70;;;;;;4978350;28;20082;-60
2022/03/30 03:13:13;;;;;;;49.95;11.65;;;9.40;77.90;;;;;;4978329;28;20046;-60
2022/03/30 03:15:41;;;;;;;41.05;11.00;;;9.40;78.30;;;;;;4977014;28;20096;-60
2022/03/30 03:18:08;;;;;;;39.65;9.45;;;9.40;78.60;;;;;;4977107;28;20136;-59
2022/03/30 03:20:34;;;;;;;;;;;9.40;79.10;;;;;;4978695;28;20038;-59
2022/03/30 03:23:02;;;;;;;41.25;10.60;;;9.40;79.10;;;;;;4977890;28;19956;-60
2022/03/30 03:25:32;;;;;;;47.17;12.20;;;9.40;79.40;;;;;;4977673;28;20056;-60
2022/03/30 03:28:01;;;;;;;66.38;11.57;;;9.30;79.50;;;;;;4977868;28;20499;-60
2022/03/30 03:30:28;;;;;;;31.67;9.05;;;9.30;79.40;;;;;;4977886;28;20108;-60
2022/03/30 03:32:56;;;;;;;31.08;8.73;;;9.40;79.40;;;;;;4977382;28;20050;-60
2022/03/30 03:35:23;;;;;;;39.88;9.38;;;9.40;79.10;;;;;;4977843;28;20046;-60
2022/03/30 03:37:50;;;;;;;31.73;9.13;;;9.40;79.20;;;;;;4975985;28;20042;-60
2022/03/30 03:40:17;;;;;;;39.10;10.07;;;9.40;79.00;;;;;;4977510;28;20897;-59
2022/03/30 03:42:44;;;;;;;42.08;10.63;;;9.40;79.00;;;;;;4977160;28;20034;-59
2022/03/30 03:45:12;;;;;;;58.85;13.40;;;9.40;80.20;;;;;;4976793;28;20096;-59
2022/03/30 03:47:38;;;;;;;62.88;10.50;;;9.40;79.30;;;;;;4976178;28;20070;-59
2022/03/30 03:50:05;;;;;;;;;;;9.40;80.00;;;;;;4978321;28;20070;-60
2022/03/30 03:52:32;;;;;;;41.17;9.63;;;9.40;80.70;;;;;;4957938;28;20400;-60
2022/03/30 03:54:59;;;;;;;48.63;12.98;;;9.40;80.50;;;;;;4957166;28;20078;-61
2022/03/30 03:57:26;;;;;;;42.00;10.15;;;9.30;81.50;;;;;;4956065;28;20070;-59
2022/03/30 03:59:53;;;;;;;33.28;8.43;;;9.30;81.40;;;;;;4956874;28;20039;-59
2022/03/30 04:02:19;;;;;;;46.67;12.23;;;9.30;81.60;;;;;;4957776;28;20105;-59
2022/03/30 04:04:47;;;;;;;46.45;10.90;;;9.30;82.40;;;;;;4957713;28;20666;-59
2022/03/30 04:07:13;;;;;;;;;;;9.30;81.50;;;;;;4971087;28;20413;-59
2022/03/30 04:09:40;;;;;;;61.63;11.60;;;9.30;81.70;;;;;;4975393;28;20567;-60
2022/03/30 04:12:10;;;;;;;43.45;10.43;;;9.20;83.00;;;;;;4977011;28;20061;-60
2022/03/30 04:14:37;;;;;;;64.53;12.05;;;9.20;83.80;;;;;;4976580;28;20387;-59
2022/03/30 04:17:04;;;;;;;38.33;9.35;;;9.20;83.70;;;;;;4975698;28;20045;-59
2022/03/30 04:19:31;;;;;;;47.58;11.02;;;9.20;83.40;;;;;;4976550;28;20152;-59
2022/03/30 04:21:58;;;;;;;56.95;11.75;;;9.20;84.70;;;;;;4976736;28;20104;-60
2022/03/30 04:24:25;;;;;;;45.97;9.75;;;9.10;84.90;;;;;;4976499;28;20752;-60
2022/03/30 04:26:51;;;;;;;58.35;10.85;;;9.10;85.70;;;;;;4975898;28;20116;-59
2022/03/30 04:29:18;;;;;;;;;;;9.10;85.70;;;;;;4976885;28;20059;-60
2022/03/30 04:31:45;;;;;;;66.82;12.20;;;9.10;86.30;;;;;;4975903;28;20439;-59
2022/03/30 04:34:11;;;;;;;42.75;10.80;;;9.10;86.90;;;;;;4975364;28;20495;-59
2022/03/30 04:36:38;;;;;;;56.15;11.82;;;9.10;85.90;;;;;;4975676;28;20039;-59
2022/03/30 04:39:05;;;;;;;45.08;10.68;;;9.10;86.30;;;;;;4975849;28;20093;-59
2022/03/30 04:41:32;;;;;;;;;;;9.10;87.10;;;;;;4976938;28;20050;-59
2022/03/30 04:44:01;;;;;;;;;;;9.10;87.80;;;;;;4977101;28;19922;-59
2022/03/30 04:46:27;;;;;;;53.63;9.40;;;9.10;88.00;;;;;;4975549;28;19926;-60
2022/03/30 04:48:54;;;;;;;;;;;9.10;88.00;;;;;;4976600;28;20135;-59
2022/03/30 04:51:21;;;;;;;55.92;12.90;;;9.10;87.60;;;;;;4975989;28;19926;-60
2022/03/30 04:53:48;;;;;;;;;;;9.10;87.10;;;;;;4976039;28;20748;-60
2022/03/30 04:56:14;;;;;;;38.70;11.15;;;9.20;86.80;;;;;;4975815;28;19921;-60
2022/03/30 04:58:41;;;;;;;39.60;10.98;;;9.20;87.90;;;;;;4974582;28;20045;-60
2022/03/30 05:01:08;;;;;;;;;;;9.20;88.20;;;;;;4976870;28;20046;-60
2022/03/30 05:03:35;;;;;;;42.83;11.65;;;9.20;88.50;;;;;;4975835;28;19949;-60
2022/03/30 05:06:02;;;;;;;38.50;9.68;;;9.20;89.00;;;;;;4975896;28;20042;-59
2022/03/30 05:08:29;;;;;;;33.30;8.77;;;9.20;89.00;;;;;;4973118;28;20055;-59
2022/03/30 05:10:56;;;;;;;42.65;12.85;;;9.20;89.60;;;;;;4976201;28;20069;-60
2022/03/30 05:13:23;;;;;;;35.60;9.27;;;9.20;90.10;;;;;;4975809;28;20083;-60
2022/03/30 05:15:51;;;;;;;;;;;9.20;90.20;;;;;;4974976;28;20074;-59
2022/03/30 05:18:18;;;;;;;51.88;10.60;;;9.20;90.30;;;;;;4975339;28;20169;-60
2022/03/30 05:20:46;;;;;;;;;;;9.20;89.20;;;;;;4974960;28;20091;-59
2022/03/30 05:23:13;;;;;;;41.47;9.07;;;9.30;89.60;;;;;;4974584;28;19925;-60
2022/03/30 05:25:39;;;;;;;;;;;9.30;89.30;;;;;;4976794;28;20043;-58
2022/03/30 05:28:06;;;;;;;41.10;8.63;;;9.30;89.30;;;;;;4973310;28;19932;-60
2022/03/30 05:30:35;;;;;;;29.85;7.80;;;9.40;89.40;;;;;;4976184;28;20065;-59
2022/03/30 05:33:02;;;;;;;29.17;7.85;;;9.40;89.60;;;;;;4975736;28;20065;-59
2022/03/30 05:35:29;;;;;;;;;;;9.40;89.90;;;;;;4976305;28;20042;-59
2022/03/30 05:37:55;;;;;;;48.78;9.20;;;9.40;90.30;;;;;;4974569;28;20043;-56
2022/03/30 05:40:22;;;;;;;29.30;9.43;;;9.40;90.30;;;;;;4975723;28;20073;-56
2022/03/30 05:42:49;;;;;;;35.20;9.57;;;9.40;90.40;;;;;;4973956;28;20074;-56
2022/03/30 05:45:15;;;;;;;;;;;9.40;90.90;;;;;;4975122;28;20047;-55
2022/03/30 05:47:43;;;;;;;31.42;7.82;;;9.40;91.10;;;;;;4974494;28;19926;-55
2022/03/30 05:50:10;;;;;;;24.65;7.63;;;9.40;91.30;;;;;;4973655;28;20065;-57
2022/03/30 05:52:37;;;;;;;30.27;8.75;;;9.40;91.50;;;;;;4975550;28;20042;-57
2022/03/30 05:55:05;;;;;;;21.92;8.00;;;9.30;91.70;;;;;;4975643;28;20508;-50
2022/03/30 05:57:31;;;;;;;42.85;8.80;;;9.40;91.70;;;;;;4974749;28;20104;-48
2022/03/30 05:59:58;;;;;;;37.92;9.13;;;9.40;91.50;;;;;;4974460;28;20112;-48
2022/03/30 06:02:25;;;;;;;34.55;8.77;;;9.40;91.50;;;;;;4975229;28;20116;-48
2022/03/30 06:04:53;;;;;;;29.10;8.07;;;9.50;91.00;;;;;;4975514;28;20054;-50
2022/03/30 06:07:20;;;;;;;34.13;8.55;;;9.50;90.90;;;;;;4974221;28;20053;-55
2022/03/30 06:09:47;;;;;;;26.60;7.97;;;9.50;91.40;;;;;;4974116;28;20046;-55
2022/03/30 06:12:16;;;;;;;34.10;8.25;;;9.60;91.50;;;;;;4973861;28;20050;-59
2022/03/30 06:14:43;;;;;;;40.33;10.75;;;9.60;91.40;;;;;;4973200;28;20127;-53
2022/03/30 06:17:10;;;;;;;;;;;9.70;91.10;;;;;;4975123;28;20046;-55
2022/03/30 06:19:38;;;;;;;36.85;10.20;;;9.70;91.00;;;;;;4973888;28;20012;-56
2022/03/30 06:22:08;;;;;;;28.85;8.48;;;9.80;90.80;;;;;;4974256;28;20096;-56
2022/03/30 06:24:37;;;;;;;45.17;9.75;;;9.90;90.80;;;;;;4974721;28;20122;-56
2022/03/30 06:27:05;;;;;;;37.20;9.10;;;9.90;91.10;;;;;;4974548;28;20050;-57
2022/03/30 06:29:36;;;;;;;48.25;12.25;;;9.90;91.10;;;;;;4975215;28;20085;-56
2022/03/30 06:32:04;;;;;;;36.13;9.82;;;9.90;91.20;;;;;;4976998;28;20042;-56
2022/03/30 06:34:31;;;;;;;31.52;7.80;;;10.00;91.20;;;;;;4978750;28;20069;-56
2022/03/30 06:36:58;;;;;;;45.50;8.40;;;10.00;91.20;;;;;;4977536;28;20046;-57
2022/03/30 06:39:25;;;;;;;;;;;10.00;91.20;;;;;;4979279;28;20038;-56
2022/03/30 06:41:52;;;;;;;35.50;10.05;;;10.10;91.10;;;;;;4978192;28;19925;-56
2022/03/30 06:44:19;;;;;;;43.67;9.90;;;10.10;91.10;;;;;;4978501;28;20047;-58
2022/03/30 06:46:46;;;;;;;;;;;10.10;91.20;;;;;;4978016;28;20053;-58
2022/03/30 06:49:13;;;;;;;37.13;9.50;;;10.10;91.30;;;;;;4978364;28;20040;-58
2022/03/30 06:51:40;;;;;;;35.25;8.25;;;10.10;91.20;;;;;;4978634;28;20054;-57
2022/03/30 06:54:07;;;;;;;23.63;7.05;;;10.10;91.40;;;;;;4976838;28;20479;-58
2022/03/30 06:56:34;;;;;;;;;;;10.10;91.30;;;;;;4978312;28;20092;-58
2022/03/30 06:59:00;;;;;;;32.95;9.35;;;10.10;91.30;;;;;;4977589;28;19991;-57
2022/03/30 07:01:34;;;;;;;33.63;8.57;;;10.20;91.70;;;;;;4976987;28;20598;-58
2022/03/30 07:04:01;;;;;;;30.85;8.60;;;10.10;91.60;;;;;;4977166;28;20050;-56
2022/03/30 07:06:28;;;;;;;33.13;9.68;;;10.10;91.60;;;;;;4977657;28;20074;-57
2022/03/30 07:11:41;;;;;;;24.45;7.57;;;10.20;91.50;;;;;;4975697;28;20054;-57
2022/03/30 07:14:07;;;;;;;32.78;7.82;;;10.20;91.70;;;;;;4978417;28;20104;-56
2022/03/30 07:16:34;;;;;;;40.47;9.00;;;10.20;91.70;;;;;;4977152;28;20043;-64
2022/03/30 07:19:01;;;;;;;;;;;10.20;91.80;;;;;;4975981;28;20143;-60
2022/03/30 07:21:28;;;;;;;32.10;8.32;;;10.30;91.90;;;;;;4975946;28;19930;-59
2022/03/30 07:23:55;;;;;;;;;;;10.30;91.90;;;;;;4976672;28;20049;-63
2022/03/30 07:26:22;;;;;;;45.35;10.68;;;10.30;92.10;;;;;;4975680;28;19930;-62
2022/03/30 07:28:50;;;;;;;36.03;9.18;;;10.30;92.10;;;;;;4974308;28;20042;-59
2022/03/30 07:31:16;;;;;;;19.65;7.38;;;10.30;92.20;;;;;;4974647;28;20677;-59
2022/03/30 07:33:43;;;;;;;50.08;8.55;;;10.30;92.30;;;;;;4975899;28;20149;-58
2022/03/30 07:36:10;;;;;;;20.42;7.93;;;10.30;92.20;;;;;;4994503;28;20049;-60
2022/03/30 07:38:37;;;;;;;33.03;8.43;;;10.30;92.30;;;;;;4985721;28;20753;-57
2022/03/30 07:41:05;;;;;;;42.05;9.45;;;10.30;92.40;;;;;;4956227;28;20093;-56
2022/03/30 07:43:32;;;;;;;32.95;8.55;;;10.40;92.60;;;;;;4964758;28;20061;-56
2022/03/30 07:45:59;;;;;;;37.15;9.25;;;10.40;92.50;;;;;;4955356;28;20350;-55
2022/03/30 07:48:26;;;;;;;29.40;7.75;;;10.40;92.50;;;;;;4955287;28;20055;-54
2022/03/30 07:50:53;;;;;;;31.13;8.52;;;10.40;92.70;;;;;;4961921;28;20568;-55
2022/03/30 07:53:25;;;;;;;32.03;9.65;;;10.40;92.60;;;;;;4975833;28;20524;-55
2022/03/30 07:55:52;;;;;;;;;;;10.40;92.80;;;;;;4974896;28;20124;-56
2022/03/30 07:58:18;;;;;;;45.15;10.32;;;10.40;93.10;;;;;;4973466;28;19932;-54
2022/03/30 08:00:45;;;;;;;38.30;10.68;;;10.50;92.90;;;;;;4975691;28;20046;-54
2022/03/30 08:03:12;;;;;;;42.25;11.05;;;10.50;93.10;;;;;;4975317;28;20042;-57
2022/03/30 08:05:40;;;;;;;30.85;9.38;;;10.50;93.80;;;;;;4974677;28;20216;-56
2022/03/30 08:08:07;;;;;;;35.55;9.15;;;10.50;93.40;;;;;;4974500;28;20058;-56
2022/03/30 08:10:35;;;;;;;34.05;9.73;;;10.50;93.90;;;;;;4973753;28;20575;-57
2022/03/30 08:13:02;;;;;;;57.25;11.13;;;10.60;93.40;;;;;;4975119;28;20128;-57
2022/03/30 08:15:31;;;;;;;35.58;10.30;;;10.50;93.30;;;;;;4974133;28;20129;-56
2022/03/30 08:17:58;;;;;;;40.30;9.60;;;10.60;93.30;;;;;;4972913;28;20050;-57
2022/03/30 08:23:12;;;;;;;37.45;9.15;;;10.60;92.90;;;;;;4975173;28;20050;-57
2022/03/30 08:25:40;;;;;;;38.00;8.50;;;10.60;92.60;;;;;;4974134;28;20120;-56
2022/03/30 08:28:07;;;;;;;;;;;10.60;92.70;;;;;;4973183;28;20290;-56
2022/03/30 08:30:34;;;;;;;46.55;10.88;;;10.60;92.90;;;;;;4974594;28;19983;-58
2022/03/30 08:33:03;;;;;;;38.63;11.25;;;10.60;92.60;;;;;;4972913;28;20058;-55
2022/03/30 08:35:31;;;;;;;34.60;9.35;;;10.60;92.70;;;;;;4972392;28;20050;-53
2022/03/30 08:37:59;;;;;;;50.95;10.68;;;10.60;92.80;;;;;;4957720;28;20038;-55
2022/03/30 08:40:26;;;;;;;37.45;9.68;;;10.70;93.00;;;;;;4974344;28;20062;-54
2022/03/30 08:42:54;;;;;;;37.70;10.55;;;10.70;93.00;;;;;;4973974;28;20045;-55
2022/03/30 08:45:22;;;;;;;40.55;9.25;;;10.70;93.00;;;;;;4975071;28;20054;-55
2022/03/30 08:47:49;;;;;;;27.83;10.60;;;10.70;93.20;;;;;;4973393;28;20075;-56
2022/03/30 08:50:15;;;;;;;;;;;10.80;93.10;;;;;;4973908;28;20069;-55
2022/03/30 08:52:45;;;;;;;36.80;9.95;;;10.80;93.10;;;;;;4974835;28;19932;-58
2022/03/30 08:55:11;;;;;;;41.13;10.13;;;10.80;92.80;;;;;;4974833;28;20050;-55
2022/03/30 08:57:38;;;;;;;31.85;9.18;;;10.90;92.20;;;;;;4955453;28;20826;-56
2022/03/30 09:00:13;;;;;;;53.78;11.13;;;10.90;92.30;;;;;;4974323;28;20042;-56
2022/03/30 09:02:42;;;;;;;35.92;8.77;;;10.90;92.30;;;;;;4974774;28;20042;-58
2022/03/30 09:05:12;;;;;;;52.58;11.80;;;10.90;92.60;;;;;;4973711;28;20535;-57
2022/03/30 09:07:40;;;;;;;45.30;9.95;;;10.90;92.50;;;;;;4973341;28;20064;-57
2022/03/30 09:10:18;;;;;;;34.55;9.55;;;11.00;92.20;;;;;;4972428;28;20137;-56
2022/03/30 09:12:48;;;;;;;31.88;9.80;;;11.00;91.80;;;;;;4974144;28;20050;-57
2022/03/30 09:15:15;;;;;;;37.55;10.43;;;11.00;91.90;;;;;;4974372;28;20058;-57
2022/03/30 09:18:00;;;;;;;41.15;10.98;;;10.90;91.90;;;;;;4953832;28;20058;-56
2022/03/30 09:20:39;;;;;;;34.03;10.13;;;10.90;92.10;;;;;;4968627;28;20113;-57
2022/03/30 09:23:08;;;;;;;36.05;9.77;;;10.90;92.50;;;;;;4975399;28;20507;-56
2022/03/30 09:25:45;;;;;;;33.78;8.63;;;11.00;92.80;;;;;;4992799;28;20052;-57
2022/03/30 09:28:16;;;;;;;40.53;8.82;;;10.90;92.80;;;;;;4992320;28;20112;-57
2022/03/30 09:30:44;;;;;;;38.13;10.63;;;11.00;93.30;;;;;;4988212;28;20100;-58
2022/03/30 09:33:11;;;;;;;49.67;10.73;;;11.00;93.60;;;;;;4993924;28;20549;-57
2022/03/30 09:35:41;;;;;;;37.38;10.32;;;11.10;93.70;;;;;;4993489;28;20065;-57
2022/03/30 09:38:14;;;;;;;35.88;11.25;;;11.10;94.00;;;;;;4988113;28;20046;-57
2022/03/30 09:40:45;;;;;;;39.63;10.10;;;11.10;94.40;;;;;;4973205;28;20038;-57
2022/03/30 09:43:25;;;;;;;29.83;9.57;;;11.10;94.50;;;;;;4983271;28;20048;-57
2022/03/30 09:46:08;;;;;;;36.80;9.60;;;11.10;95.30;;;;;;4992066;28;20112;-56
2022/03/30 09:48:48;;;;;;;36.97;10.43;;;11.10;95.60;;;;;;4991973;28;20512;-56
2022/03/30 09:51:20;;;;;;;36.60;10.73;;;11.00;96.20;;;;;;4990480;28;20041;-58
2022/03/30 09:53:47;;;;;;;31.85;9.50;;;10.80;97.70;;;;;;4991081;28;20054;-57
2022/03/30 09:56:22;;;;;;;34.33;9.93;;;10.70;97.50;;;;;;4992245;28;20048;-57
2022/03/30 09:58:58;;;;;;;30.10;8.23;;;10.60;98.90;;;;;;4991513;28;20054;-57
2022/03/30 10:01:29;;;;;;;39.22;8.07;;;10.50;99.70;;;;;;5007700;28;20049;-57
2022/03/30 10:04:02;;;;;;;32.38;9.02;;;10.50;99.90;;;;;;4991575;28;20045;-57
2022/03/30 10:06:31;;;;;;;35.53;9.48;;;10.50;99.90;;;;;;4986261;28;21071;-58
2022/03/30 10:09:04;;;;;;;35.45;8.73;;;10.40;99.90;;;;;;4977105;28;20050;-57
2022/03/30 10:11:32;;;;;;;24.60;9.63;;;10.40;99.90;;;;;;4977777;28;20064;-57
2022/03/30 10:14:03;;;;;;;36.42;7.90;;;10.30;99.90;;;;;;4978144;28;20050;-57
2022/03/30 10:16:42;;;;;;;32.20;8.48;;;10.30;99.90;;;;;;4968350;28;20050;-56
2022/03/30 10:19:09;;;;;;;34.35;8.38;;;10.30;99.90;;;;;;4976866;28;20045;-57
2022/03/30 10:21:40;;;;;;;32.28;8.98;;;10.30;99.90;;;;;;4976863;28;20049;-57
2022/03/30 10:24:42;;;;;;;35.35;10.27;;;10.20;99.90;;;;;;4977684;28;20047;-57
2022/03/30 10:27:30;;;;;;;33.22;8.93;;;10.20;99.90;;;;;;4974459;28;20050;-57
2022/03/30 10:30:01;;;;;;;;;;;10.10;99.90;;;;;;4977535;28;20042;-57
2022/03/30 10:32:33;;;;;;;29.80;8.48;;;10.10;99.90;;;;;;4974962;28;19925;-56
2022/03/30 10:35:04;;;;;;;31.13;8.18;;;10.00;99.90;;;;;;4977702;28;20077;-57
2022/03/30 10:37:34;;;;;;;29.83;9.07;;;9.90;99.90;;;;;;4976681;28;20053;-57
2022/03/30 10:40:04;;;;;;;32.08;8.75;;;9.90;99.90;;;;;;4976293;28;20077;-57
2022/03/30 10:42:46;;;;;;;31.90;9.82;;;9.90;99.90;;;;;;4977044;28;20378;-57
2022/03/30 10:45:30;;;;;;;30.23;8.13;;;9.90;99.90;;;;;;4976876;28;20125;-56
2022/03/30 10:48:37;;;;;;;27.77;9.18;;;9.80;99.90;;;;;;4974438;28;20042;-58
2022/03/30 10:51:06;;;;;;;26.13;9.07;;;9.80;99.90;;;;;;4976766;28;20062;-57
2022/03/30 10:53:38;;;;;;;22.85;8.68;;;9.80;99.90;;;;;;4976831;28;20053;-59
2022/03/30 10:56:12;;;;;;;24.80;8.73;;;9.80;99.90;;;;;;4976877;28;20048;-58
2022/03/30 10:59:00;;;;;;;27.83;8.20;;;9.80;99.90;;;;;;4974148;28;20057;-58
2022/03/30 11:01:31;;;;;;;21.00;7.10;;;9.80;99.90;;;;;;4975881;28;20054;-58
2022/03/30 11:04:18;;;;;;;23.92;7.88;;;9.80;99.90;;;;;;4976994;28;20050;-57
2022/03/30 11:07:06;;;;;;;23.38;8.18;;;9.80;99.90;;;;;;4975268;28;20667;-57
2022/03/30 11:09:34;;;;;;;18.15;7.22;;;9.80;99.90;;;;;;4976275;28;20046;-57
2022/03/30 11:12:13;;;;;;;26.23;6.13;;;9.80;99.90;;;;;;4975142;28;20121;-58
2022/03/30 11:15:00;;;;;;;21.48;6.28;;;9.80;99.90;;;;;;4990974;28;20042;-58
2022/03/30 11:17:32;;;;;;;20.90;6.85;;;9.80;99.90;;;;;;4973705;28;20042;-57
2022/03/30 11:19:59;;;;;;;13.50;5.85;;;9.80;99.90;;;;;;4976528;28;20531;-57
2022/03/30 11:22:28;;;;;;;15.05;5.65;;;9.80;99.90;;;;;;4976479;28;20050;-57
2022/03/30 11:25:13;;;;;;;24.98;6.20;;;9.80;99.90;;;;;;4974296;28;20046;-58
2022/03/30 11:27:41;;;;;;;19.20;6.05;;;9.80;99.90;;;;;;4977439;28;20042;-60
2022/03/30 11:30:13;;;;;;;16.10;6.00;;;9.80;99.90;;;;;;4993224;28;20045;-57
2022/03/30 11:32:43;;;;;;;21.30;5.68;;;9.80;99.90;;;;;;4994707;28;20045;-58
2022/03/30 11:35:18;;;;;;;17.83;4.78;;;9.70;99.90;;;;;;4993491;28;20697;-57
2022/03/30 11:38:09;;;;;;;16.15;5.40;;;9.60;99.90;;;;;;4992403;28;20135;-58
2022/03/30 11:40:39;;;;;;;17.38;6.07;;;9.70;99.90;;;;;;4975524;28;20042;-56
2022/03/30 11:43:06;;;;;;;23.23;6.38;;;9.60;99.90;;;;;;4958264;28;20516;-57
2022/03/30 11:45:53;;;;;;;14.03;5.67;;;9.60;99.90;;;;;;4975169;28;20149;-57
2022/03/30 11:48:20;;;;;;;12.95;5.88;;;9.60;99.90;;;;;;4973994;28;21241;-46
2022/03/30 11:50:49;;;;;;;;;;;9.70;99.90;;;;;;4976466;28;20046;-48
2022/03/30 11:53:19;;;;;;;17.75;5.68;;;9.70;99.90;;;;;;4973645;28;19925;-49
2022/03/30 11:56:05;;;;;;;13.43;6.47;;;9.70;99.90;;;;;;4975686;28;20137;-54
2022/03/30 11:58:41;;;;;;;18.15;6.00;;;9.70;99.90;;;;;;4974649;28;20042;-56
2022/03/30 12:01:10;;;;;;;19.42;7.70;;;9.70;99.90;;;;;;4975627;28;20047;-53
2022/03/30 12:03:38;;;;;;;17.77;7.30;;;9.80;99.90;;;;;;4976224;28;20047;-56
2022/03/30 12:06:07;;;;;;;18.50;6.53;;;9.80;99.90;;;;;;4974669;28;20125;-56
2022/03/30 12:08:44;;;;;;;18.17;6.03;;;9.80;99.90;;;;;;4975215;28;20060;-57
2022/03/30 12:11:12;;;;;;;;;;;9.80;99.90;;;;;;4974872;28;20050;-56
2022/03/30 12:13:39;;;;;;;18.38;7.13;;;9.90;99.90;;;;;;4975732;28;19926;-57
2022/03/30 12:16:13;;;;;;;30.83;7.18;;;9.90;99.90;;;;;;4975029;28;20072;-55
2022/03/30 12:18:59;;;;;;;22.23;7.88;;;9.90;99.90;;;;;;4974377;28;20053;-57
2022/03/30 12:21:34;;;;;;;19.42;7.18;;;9.90;99.90;;;;;;4974604;28;20038;-57
2022/03/30 12:24:04;;;;;;;18.10;7.40;;;9.90;99.90;;;;;;4975448;28;20479;-55
2022/03/30 12:26:51;;;;;;;16.60;6.68;;;9.90;99.90;;;;;;4974536;28;20180;-60
2022/03/30 12:29:18;;;;;;;21.65;7.25;;;9.90;99.90;;;;;;4973415;28;20093;-55
2022/03/30 12:31:54;;;;;;;15.55;7.57;;;9.90;99.90;;;;;;4974439;28;20050;-54
2022/03/30 12:34:23;;;;;;;20.52;7.18;;;10.00;99.90;;;;;;4974300;28;20074;-64
2022/03/30 12:36:58;;;;;;;13.55;7.22;;;10.00;99.90;;;;;;4972878;28;20113;-54
2022/03/30 12:39:34;;;;;;;18.38;8.38;;;10.00;99.90;;;;;;4974361;28;20121;-63
2022/03/30 12:42:24;;;;;;;20.73;8.40;;;10.00;99.90;;;;;;4975505;28;20046;-54
2022/03/30 12:44:56;;;;;;;20.17;7.32;;;10.00;99.90;;;;;;4976243;28;20111;-56
2022/03/30 12:47:32;;;;;;;13.00;7.18;;;10.00;99.90;;;;;;4972476;28;20046;-56
2022/03/30 12:50:10;;;;;;;13.90;6.95;;;10.00;99.90;;;;;;4974862;28;20046;-56
2022/03/30 12:52:42;;;;;;;11.93;7.18;;;10.00;99.90;;;;;;4974942;28;20065;-54
2022/03/30 12:55:25;;;;;;;16.88;7.30;;;10.00;99.90;;;;;;4974990;28;20054;-54
2022/03/30 12:58:14;;;;;;;18.45;7.78;;;10.10;99.90;;;;;;4973949;28;20089;-54
2022/03/30 13:00:46;;;;;;;12.20;6.82;;;10.10;99.90;;;;;;4974000;28;20459;-53
2022/03/30 13:03:19;;;;;;;10.15;6.55;;;10.20;99.90;;;;;;4974251;28;20050;-54
2022/03/30 13:05:48;;;;;;;11.65;7.18;;;10.20;99.90;;;;;;4972882;28;20676;-53
2022/03/30 13:08:21;;;;;;;15.48;6.30;;;10.20;99.90;;;;;;4973515;28;21011;-54
2022/03/30 13:11:00;;;;;;;15.63;6.68;;;10.30;99.90;;;;;;4967773;28;20227;-55